Аэропорт: Кокшетау. Кокшетау

ICAO: UACK

METAR:
2019/05/26 11:30
UACK 261130Z 29006MPS CAVOK 15/M05 Q1023 R20/090070 NOSIG RMK QFE744/0992
METAR:
2014/11/02 12:00
TAF UACK 021140Z 0212/0221 CNL